Al Hoceima, Morocco
Current Conditions -  °F | °C
As of 1:00 PM on Monday 26 Jan 2015 (Local Time) from GMTA Reporting Station
Few Clouds Few Clouds  
Wind Chill: 64°   Ceiling: Unl
Heat Index: 64°   Visibility: 6mi
Dew Point: 46°   Wind: 7mph
Humidity: 52%   Direction: 20°NNE
Pressure: 30.3"   Gusts: NA
Location:  35.26°N, 3.94°W
Report Text: GMTA 261200Z 02006KT 9999 FEW020 18/08 Q1026 NOSIG
Loading
Personal Weather Stations






























Interactive Weather Map New forecast layout! Learn more

10-Day Weather Forecast

Advertisements
Track Severe Weather on mobile